createdAt,value
2022-09-01T00:00:15.623Z,72.31
2022-09-01T00:01:15.652Z,72.21
2022-09-01T00:02:15.692Z,72.31
2022-09-01T00:03:15.603Z,72.01
2022-09-01T00:04:15.659Z,72.01
2022-09-01T00:05:15.582Z,72.01
2022-09-01T00:06:15.564Z,72.21
2022-09-01T00:07:15.552Z,72.21
2022-09-01T00:08:16.278Z,72.11
2022-09-01T00:09:15.533Z,71.91
2022-09-01T00:10:15.534Z,72.11
2022-09-01T00:11:15.550Z,72.11
2022-09-01T00:12:15.505Z,72.31
2022-09-01T00:13:15.486Z,72.45
2022-09-01T00:14:30.225Z,72.34
2022-09-01T00:15:16.461Z,72.11
2022-09-01T00:16:15.472Z,72.04
2022-09-01T00:17:15.464Z,72.04
2022-09-01T00:18:15.503Z,72.04
2022-09-01T00:19:15.425Z,71.94
2022-09-01T00:20:20.090Z,72.45
2022-09-01T00:21:16.426Z,71.84
2022-09-01T00:22:15.399Z,72.45
2022-09-01T00:23:15.376Z,72.25
2022-09-01T00:24:15.358Z,72.34
2022-09-01T00:25:15.355Z,72.25
2022-09-01T00:26:15.358Z,72.45
2022-09-01T00:27:15.335Z,72.14
2022-09-01T00:28:15.316Z,72.55
2022-09-01T00:29:15.314Z,72.75
2022-09-01T00:30:15.310Z,72.65
2022-09-01T00:31:15.391Z,72.34
2022-09-01T00:32:15.297Z,72.45
2022-09-01T00:33:15.267Z,72.34
2022-09-01T00:34:15.257Z,72.25
2022-09-01T00:35:15.248Z,72.75
2022-09-01T00:36:15.227Z,72.65
2022-09-01T00:37:15.248Z,72.55
2022-09-01T00:38:15.207Z,72.75
2022-09-01T00:39:15.200Z,73.06
2022-09-01T00:40:15.246Z,73.09
2022-09-01T00:41:15.212Z,73.19
2022-09-01T00:42:15.187Z,73.19
2022-09-01T00:43:15.158Z,73.29
2022-09-01T00:44:15.140Z,73.29
2022-09-01T00:45:15.128Z,73.39
2022-09-01T00:46:15.196Z,73.19
2022-09-01T00:47:16.130Z,73.39
2022-09-01T00:48:15.100Z,73.60
2022-09-01T00:49:15.093Z,73.70
2022-09-01T00:50:15.081Z,73.80
2022-09-01T00:51:15.090Z,73.90
2022-09-01T00:52:16.004Z,74.01
2022-09-01T00:53:15.049Z,73.80
2022-09-01T00:54:15.033Z,73.90
2022-09-01T00:55:15.030Z,74.01
2022-09-01T00:56:15.041Z,74.62
2022-09-01T00:57:15.001Z,74.10
2022-09-01T00:58:19.612Z,74.62
2022-09-01T00:59:15.980Z,74.62
2022-09-01T01:00:14.971Z,74.82
2022-09-01T01:01:15.011Z,75.22
2022-09-01T01:02:15.061Z,75.12
2022-09-01T01:03:14.934Z,75.67
2022-09-01T01:04:14.938Z,75.87
2022-09-01T01:05:15.225Z,76.17
2022-09-01T01:06:14.903Z,76.28
2022-09-01T01:07:14.923Z,76.37
2022-09-01T01:08:14.883Z,76.78
2022-09-01T01:09:14.873Z,77.29
2022-09-01T01:10:14.863Z,77.09
2022-09-01T01:11:14.863Z,77.22
2022-09-01T01:12:14.843Z,77.43
2022-09-01T01:13:14.824Z,77.53
2022-09-01T01:14:14.813Z,77.53
2022-09-01T01:15:14.810Z,77.63
2022-09-01T01:16:14.853Z,77.63
2022-09-01T01:17:14.777Z,77.63
2022-09-01T01:18:14.802Z,77.94
2022-09-01T01:19:14.755Z,77.83
2022-09-01T01:20:14.753Z,77.77
2022-09-01T01:21:14.754Z,77.56
2022-09-01T01:22:14.735Z,77.77
2022-09-01T01:23:14.713Z,77.97
2022-09-01T01:24:14.705Z,78.08
2022-09-01T01:25:14.694Z,77.97
2022-09-01T01:26:14.717Z,77.87
2022-09-01T01:27:14.673Z,78.08
2022-09-01T01:28:14.656Z,77.77
2022-09-01T01:29:14.674Z,77.56
2022-09-01T01:30:14.636Z,77.77
2022-09-01T01:31:14.712Z,77.56
2022-09-01T01:32:14.617Z,76.95
2022-09-01T01:33:14.607Z,77.16
2022-09-01T01:34:14.617Z,77.16
2022-09-01T01:35:14.583Z,77.36
2022-09-01T01:36:14.576Z,76.99
2022-09-01T01:37:14.557Z,76.99
2022-09-01T01:38:14.576Z,76.68
2022-09-01T01:39:14.538Z,77.09
2022-09-01T01:40:14.561Z,77.91
2022-09-01T01:41:14.521Z,77.81
2022-09-01T01:42:14.507Z,77.50
2022-09-01T01:43:14.496Z,77.50
2022-09-01T01:44:14.509Z,77.81
2022-09-01T01:45:14.477Z,78.21
2022-09-01T01:46:14.612Z,78.62
2022-09-01T01:47:14.447Z,78.62
2022-09-01T01:48:14.448Z,79.53
2022-09-01T01:49:14.447Z,79.53
2022-09-01T01:50:14.429Z,79.94
2022-09-01T01:51:14.427Z,80.24
2022-09-01T01:52:14.397Z,80.38
2022-09-01T01:53:14.391Z,80.79
2022-09-01T01:54:14.378Z,81.10
2022-09-01T01:55:14.369Z,81.40
2022-09-01T01:56:14.377Z,81.81
2022-09-01T01:57:14.347Z,82.01
2022-09-01T01:58:14.338Z,82.12
2022-09-01T01:59:14.320Z,82.42
2022-09-01T02:00:14.332Z,82.62
2022-09-01T02:01:14.400Z,82.52
2022-09-01T02:02:14.322Z,82.35
2022-09-01T02:03:14.301Z,82.35
2022-09-01T02:04:14.270Z,82.26
2022-09-01T02:05:14.260Z,82.66
2022-09-01T02:06:14.270Z,82.76
2022-09-01T02:07:14.236Z,82.35
2022-09-01T02:08:14.231Z,82.97
2022-09-01T02:09:14.218Z,82.97
2022-09-01T02:10:14.222Z,82.76
2022-09-01T02:11:14.190Z,83.07
2022-09-01T02:12:14.972Z,83.07
2022-09-01T02:13:14.162Z,82.90
2022-09-01T02:14:14.162Z,82.19
2022-09-01T02:15:14.182Z,82.29
2022-09-01T02:16:14.181Z,82.70
2022-09-01T02:17:14.122Z,82.70
2022-09-01T02:18:14.131Z,82.80
2022-09-01T02:19:14.104Z,82.60
2022-09-01T02:20:14.094Z,82.09
2022-09-01T02:21:18.311Z,81.79
2022-09-01T02:22:14.074Z,81.99
2022-09-01T02:23:21.851Z,81.88
2022-09-01T02:24:14.054Z,82.09
2022-09-01T02:25:14.083Z,81.88
2022-09-01T02:26:16.853Z,81.68
2022-09-01T02:27:14.021Z,81.68
2022-09-01T02:28:14.011Z,81.99
2022-09-01T02:29:13.992Z,81.99
2022-09-01T02:30:13.984Z,82.09
2022-09-01T02:31:14.063Z,81.79
2022-09-01T02:32:13.965Z,81.58
2022-09-01T02:33:13.953Z,81.68
2022-09-01T02:34:14.017Z,81.88
2022-09-01T02:35:13.924Z,81.79
2022-09-01T02:36:13.954Z,81.68
2022-09-01T02:37:13.904Z,81.88
2022-09-01T02:38:13.896Z,81.58
2022-09-01T02:39:13.884Z,81.27
2022-09-01T02:40:13.911Z,81.17
2022-09-01T02:41:13.864Z,81.27
2022-09-01T02:42:13.875Z,81.48
2022-09-01T02:43:13.844Z,81.58
2022-09-01T02:44:13.834Z,81.48
2022-09-01T02:45:13.821Z,81.27
2022-09-01T02:46:13.897Z,81.07
2022-09-01T02:47:13.802Z,80.97
2022-09-01T02:48:13.793Z,81.07
2022-09-01T02:49:13.775Z,81.07
2022-09-01T02:50:13.773Z,80.66
2022-09-01T02:51:13.756Z,80.66
2022-09-01T02:52:13.781Z,80.87
2022-09-01T02:53:13.735Z,80.56
2022-09-01T02:54:13.727Z,80.87
2022-09-01T02:55:13.715Z,80.97
2022-09-01T02:56:13.710Z,80.97
2022-09-01T02:57:13.709Z,80.97
2022-09-01T02:58:13.758Z,80.87
2022-09-01T02:59:13.675Z,80.77
2022-09-01T03:00:13.657Z,81.07
2022-09-01T03:01:13.746Z,80.97
2022-09-01T03:02:13.636Z,80.97
2022-09-01T03:03:13.626Z,81.17
2022-09-01T03:04:13.638Z,81.07
2022-09-01T03:05:13.655Z,81.27
2022-09-01T03:06:13.599Z,81.07
2022-09-01T03:07:13.578Z,81.07
2022-09-01T03:08:13.606Z,81.38
2022-09-01T03:09:13.558Z,81.27
2022-09-01T03:10:13.557Z,81.27
2022-09-01T03:11:13.594Z,80.87
2022-09-01T03:12:13.530Z,81.07
2022-09-01T03:13:13.520Z,81.17
2022-09-01T03:14:13.527Z,81.27
2022-09-01T03:15:13.489Z,81.27
2022-09-01T03:16:13.559Z,81.07
2022-09-01T03:17:13.476Z,81.17
2022-09-01T03:18:13.473Z,81.17
2022-09-01T03:19:13.469Z,81.07
2022-09-01T03:20:13.472Z,81.38
2022-09-01T03:21:13.430Z,81.27
2022-09-01T03:22:13.430Z,81.27
2022-09-01T03:23:13.411Z,81.27
2022-09-01T03:24:13.436Z,81.17
2022-09-01T03:25:13.417Z,81.48
2022-09-01T03:26:13.383Z,81.38
2022-09-01T03:27:13.367Z,81.13
2022-09-01T03:28:13.400Z,81.44
2022-09-01T03:29:13.348Z,81.95
2022-09-01T03:30:13.360Z,81.65
2022-09-01T03:31:13.328Z,81.65
2022-09-01T03:32:13.385Z,81.54
2022-09-01T03:33:13.302Z,81.44
2022-09-01T03:34:13.301Z,81.34
2022-09-01T03:35:13.280Z,81.34
2022-09-01T03:36:15.198Z,81.44
2022-09-01T03:37:13.259Z,81.85
2022-09-01T03:38:13.249Z,81.65
2022-09-01T03:39:16.613Z,81.44
2022-09-01T03:40:13.246Z,81.95
2022-09-01T03:41:13.570Z,82.15
2022-09-01T03:42:13.211Z,82.35
2022-09-01T03:43:13.192Z,82.05
2022-09-01T03:44:13.183Z,81.99
2022-09-01T03:45:13.180Z,82.80
2022-09-01T03:46:13.226Z,82.90
2022-09-01T03:47:13.152Z,83.11
2022-09-01T03:48:13.142Z,83.11
2022-09-01T03:49:13.132Z,83.51
2022-09-01T03:50:13.121Z,83.72
2022-09-01T03:51:13.123Z,84.12
2022-09-01T03:52:13.095Z,84.67
2022-09-01T03:53:13.084Z,84.78
2022-09-01T03:54:13.072Z,85.08
2022-09-01T03:55:13.063Z,85.28
2022-09-01T03:56:13.073Z,85.19
2022-09-01T03:57:13.847Z,85.33
2022-09-01T03:58:13.035Z,84.92
2022-09-01T03:59:13.025Z,85.02
2022-09-01T04:00:13.007Z,85.22
2022-09-01T04:01:13.703Z,85.43
2022-09-01T04:02:13.052Z,85.53
2022-09-01T04:03:12.976Z,85.77
2022-09-01T04:04:12.963Z,85.88
2022-09-01T04:05:12.953Z,86.29
2022-09-01T04:06:12.946Z,86.49
2022-09-01T04:07:18.979Z,86.69
2022-09-01T04:08:13.923Z,86.90
2022-09-01T04:09:12.918Z,87.20
2022-09-01T04:10:12.907Z,87.51
2022-09-01T04:11:12.897Z,87.76
2022-09-01T04:12:12.901Z,88.06
2022-09-01T04:13:12.866Z,88.37
2022-09-01T04:14:12.864Z,88.57
2022-09-01T04:15:12.855Z,88.57
2022-09-01T04:16:12.875Z,88.78
2022-09-01T04:17:12.851Z,88.98
2022-09-01T04:18:12.834Z,89.08
2022-09-01T04:19:12.805Z,89.08
2022-09-01T04:20:12.786Z,89.12
2022-09-01T04:21:12.785Z,89.12
2022-09-01T04:22:12.773Z,89.12
2022-09-01T04:23:12.786Z,89.32
2022-09-01T04:24:12.746Z,89.23
2022-09-01T04:25:12.746Z,89.12
2022-09-01T04:26:12.726Z,89.02
2022-09-01T04:27:12.751Z,89.02
2022-09-01T04:28:12.748Z,89.12
2022-09-01T04:29:12.699Z,89.32
2022-09-01T04:30:12.678Z,89.32
2022-09-01T04:31:12.705Z,89.32
2022-09-01T04:32:12.857Z,89.32
2022-09-01T04:33:12.678Z,89.43
2022-09-01T04:34:12.637Z,89.63
2022-09-01T04:35:12.627Z,89.67
2022-09-01T04:36:12.618Z,89.78
2022-09-01T04:37:12.636Z,89.88
2022-09-01T04:38:12.605Z,90.19
2022-09-01T04:39:12.587Z,90.39
2022-09-01T04:40:12.610Z,90.49
2022-09-01T04:41:12.559Z,90.49
2022-09-01T04:42:12.558Z,90.70
2022-09-01T04:43:12.568Z,90.80
2022-09-01T04:44:12.528Z,90.70
2022-09-01T04:45:12.527Z,90.70
2022-09-01T04:46:12.542Z,90.90
2022-09-01T04:47:12.498Z,90.90
2022-09-01T04:48:12.559Z,90.80
2022-09-01T04:49:13.367Z,90.80
2022-09-01T04:50:12.470Z,91.00
2022-09-01T04:51:12.459Z,91.11
2022-09-01T04:52:12.449Z,90.90
2022-09-01T04:53:12.458Z,91.11
2022-09-01T04:54:12.419Z,91.11
2022-09-01T04:55:12.411Z,91.11
2022-09-01T04:56:12.408Z,90.90
2022-09-01T04:57:12.392Z,90.90
2022-09-01T04:58:12.408Z,90.80
2022-09-01T04:59:12.372Z,90.90
2022-09-01T05:00:12.360Z,91.11
2022-09-01T05:01:12.382Z,91.11
2022-09-01T05:02:12.400Z,91.31
2022-09-01T05:03:12.322Z,91.20
2022-09-01T05:04:12.343Z,91.31
2022-09-01T05:05:12.302Z,91.52
2022-09-01T05:06:12.290Z,91.72
2022-09-01T05:07:12.281Z,91.92
2022-09-01T05:08:12.312Z,91.92
2022-09-01T05:09:12.262Z,92.23
2022-09-01T05:10:12.254Z,92.43
2022-09-01T05:11:12.241Z,92.64
2022-09-01T05:12:15.658Z,93.15
2022-09-01T05:13:12.232Z,93.35
2022-09-01T05:14:12.212Z,93.25
2022-09-01T05:15:12.192Z,93.15
2022-09-01T05:16:12.197Z,93.10
2022-09-01T05:17:12.173Z,93.10
2022-09-01T05:18:12.237Z,93.10
2022-09-01T05:19:12.145Z,93.00
2022-09-01T05:20:12.145Z,92.80
2022-09-01T05:21:12.125Z,92.59
2022-09-01T05:22:12.122Z,92.69
2022-09-01T05:23:12.124Z,92.49
2022-09-01T05:24:12.102Z,92.29
2022-09-01T05:25:12.082Z,92.29
2022-09-01T05:26:12.083Z,92.29
2022-09-01T05:27:12.056Z,92.14
2022-09-01T05:28:12.171Z,92.04
2022-09-01T05:29:12.035Z,92.04
2022-09-01T05:30:12.033Z,91.94
2022-09-01T05:31:12.052Z,91.83
2022-09-01T05:32:12.003Z,91.83
2022-09-01T05:33:12.015Z,91.83
2022-09-01T05:34:13.899Z,91.94
2022-09-01T05:35:11.965Z,91.83
2022-09-01T05:36:11.966Z,91.69
2022-09-01T05:37:11.953Z,91.79
2022-09-01T05:38:11.992Z,91.79
2022-09-01T05:39:11.934Z,91.69
2022-09-01T05:40:12.389Z,91.69
2022-09-01T05:41:11.904Z,91.49
2022-09-01T05:42:11.896Z,91.39
2022-09-01T05:43:11.904Z,91.44
2022-09-01T05:44:11.875Z,91.55
2022-09-01T05:45:11.870Z,91.44
2022-09-01T05:46:11.955Z,91.44
2022-09-01T05:47:11.843Z,91.24
2022-09-01T05:48:12.855Z,91.24
2022-09-01T05:49:11.816Z,91.03
2022-09-01T05:50:14.472Z,90.94
2022-09-01T05:51:33.519Z,90.73
2022-09-01T05:52:12.793Z,90.38
2022-09-01T05:53:12.875Z,90.18
2022-09-01T05:54:11.766Z,90.08
2022-09-01T05:55:11.756Z,89.97
2022-09-01T05:56:11.747Z,89.67
2022-09-01T05:57:33.325Z,89.36
2022-09-01T05:58:12.774Z,88.61
2022-09-01T05:59:27.268Z,88.31
2022-09-01T06:00:12.709Z,88.10
2022-09-01T06:01:11.687Z,87.90
2022-09-01T06:02:11.764Z,87.35
2022-09-01T06:03:11.872Z,87.24
2022-09-01T06:04:11.686Z,87.24
2022-09-01T06:05:11.655Z,86.74
2022-09-01T06:06:11.639Z,86.49
2022-09-01T06:07:13.616Z,86.59
2022-09-01T06:08:11.618Z,86.29
2022-09-01T06:09:11.608Z,86.29
2022-09-01T06:10:11.624Z,86.19
2022-09-01T06:11:11.581Z,85.74
2022-09-01T06:12:11.569Z,85.64
2022-09-01T06:13:11.561Z,85.43
2022-09-01T06:14:11.576Z,85.43
2022-09-01T06:15:11.539Z,85.23
2022-09-01T06:16:11.550Z,85.19
2022-09-01T06:17:11.518Z,84.99
2022-09-01T06:18:11.540Z,84.68
2022-09-01T06:19:11.513Z,84.58
2022-09-01T06:20:11.497Z,84.68
2022-09-01T06:21:11.488Z,84.74
2022-09-01T06:22:11.471Z,84.74
2022-09-01T06:23:11.451Z,84.44
2022-09-01T06:24:11.468Z,84.13
2022-09-01T06:25:11.493Z,84.13
2022-09-01T06:26:11.420Z,84.09
2022-09-01T06:27:11.408Z,83.99
2022-09-01T06:28:11.401Z,83.69
2022-09-01T06:29:11.388Z,83.79
2022-09-01T06:30:11.381Z,83.14
2022-09-01T06:31:11.412Z,83.04
2022-09-01T06:32:11.352Z,83.14
2022-09-01T06:33:11.343Z,83.14
2022-09-01T06:34:11.341Z,82.19
2022-09-01T06:35:11.342Z,81.99
2022-09-01T06:36:11.312Z,81.88
2022-09-01T06:37:11.301Z,81.78
2022-09-01T06:38:11.294Z,81.88
2022-09-01T06:39:11.273Z,81.34
2022-09-01T06:40:11.360Z,81.24
2022-09-01T06:41:11.272Z,81.04
2022-09-01T06:42:11.251Z,80.79
2022-09-01T06:43:11.241Z,81.40
2022-09-01T06:44:14.553Z,81.30
2022-09-01T06:45:11.234Z,81.30
2022-09-01T06:46:11.265Z,80.79
2022-09-01T06:47:11.183Z,80.90
2022-09-01T06:48:11.188Z,81.06
2022-09-01T06:49:11.171Z,81.06
2022-09-01T06:50:11.240Z,80.65
2022-09-01T06:51:16.104Z,80.55
2022-09-01T06:52:12.133Z,80.45
2022-09-01T06:54:12.527Z,80.52
2022-09-01T06:55:11.102Z,80.31
2022-09-01T06:56:11.124Z,80.21
2022-09-01T06:58:12.608Z,79.46
2022-09-01T06:59:11.056Z,79.36
2022-09-01T07:00:11.053Z,79.26
2022-09-01T07:01:11.064Z,79.06
2022-09-01T07:02:16.783Z,78.72
2022-09-01T07:03:12.016Z,78.62
2022-09-01T07:04:13.996Z,78.52
2022-09-01T07:05:59.541Z,78.11
2022-09-01T07:06:59.026Z,77.97
2022-09-01T07:08:11.957Z,77.47
2022-09-01T07:09:38.783Z,77.26
2022-09-01T07:10:21.273Z,77.17
2022-09-01T07:11:19.668Z,76.93
2022-09-01T07:13:11.981Z,76.62
2022-09-01T07:14:17.949Z,75.98
2022-09-01T07:17:27.147Z,75.54
2022-09-01T07:18:11.868Z,75.24
2022-09-01T07:19:10.848Z,75.04
2022-09-01T07:20:26.191Z,75.04
2022-09-01T07:22:35.830Z,74.49
2022-09-01T07:23:11.819Z,75.00
2022-09-01T07:24:11.496Z,74.80
2022-09-01T07:25:12.211Z,74.56
2022-09-01T07:26:10.769Z,74.46
2022-09-01T07:28:15.821Z,73.75
2022-09-01T07:29:10.729Z,73.62
2022-09-01T07:30:10.720Z,73.22
2022-09-01T07:35:11.953Z,72.88
2022-09-01T07:36:26.806Z,72.38
2022-09-01T07:43:11.605Z,71.53
2022-09-01T07:44:10.571Z,71.33
2022-09-01T07:45:26.932Z,71.20
2022-09-01T07:47:19.894Z,71.10
2022-09-01T07:48:11.609Z,70.59
2022-09-01T07:50:25.006Z,71.06
2022-09-01T07:52:11.483Z,70.86
2022-09-01T07:53:10.465Z,70.86
2022-09-01T07:54:10.483Z,70.36
2022-09-01T07:55:10.443Z,70.36
2022-09-01T07:56:10.434Z,69.22
2022-09-01T07:57:10.416Z,68.82
2022-09-01T07:58:10.415Z,69.22
2022-09-01T07:59:14.847Z,69.52
2022-09-01T08:00:11.418Z,69.29
2022-09-01T08:01:10.375Z,69.29
2022-09-01T08:02:10.410Z,68.98
2022-09-01T08:03:10.404Z,68.88
2022-09-01T08:04:10.377Z,68.88
2022-09-01T08:05:10.335Z,68.28
2022-09-01T08:06:10.326Z,68.35
2022-09-01T08:07:15.463Z,68.15
2022-09-01T08:08:18.863Z,68.15
2022-09-01T08:09:11.722Z,68.15
2022-09-01T08:10:10.281Z,68.45
2022-09-01T08:11:10.269Z,67.65
2022-09-01T08:12:10.264Z,66.71
2022-09-01T08:13:15.372Z,67.11
2022-09-01T08:14:11.237Z,66.61
2022-09-01T08:15:14.214Z,66.17
2022-09-01T08:16:18.769Z,66.38
2022-09-01T08:17:34.318Z,65.77
2022-09-01T08:18:14.079Z,65.67
2022-09-01T08:19:16.416Z,65.57
2022-09-01T08:20:11.172Z,65.54
2022-09-01T08:21:10.167Z,65.54
2022-09-01T08:22:10.151Z,65.24
2022-09-01T08:23:10.139Z,65.14
2022-09-01T08:24:17.210Z,65.24
2022-09-01T08:25:11.900Z,65.14
2022-09-01T08:26:10.110Z,65.01
2022-09-01T08:27:10.092Z,65.21
2022-09-01T08:28:10.082Z,65.31
2022-09-01T08:29:10.071Z,65.21
2022-09-01T08:30:10.113Z,64.71
2022-09-01T08:31:11.379Z,64.71
2022-09-01T08:32:10.044Z,64.28
2022-09-01T08:33:10.536Z,63.78
2022-09-01T08:34:10.024Z,62.97
2022-09-01T08:35:10.006Z,63.28
2022-09-01T08:36:10.097Z,63.34
2022-09-01T08:37:09.983Z,63.34
2022-09-01T08:38:09.975Z,62.84
2022-09-01T08:39:09.967Z,63.24
2022-09-01T08:40:10.008Z,63.54
2022-09-01T08:41:09.945Z,63.14
2022-09-01T08:42:09.944Z,63.24
2022-09-01T08:43:14.607Z,62.94
2022-09-01T08:44:10.915Z,63.31
2022-09-01T08:45:09.917Z,62.92
2022-09-01T08:46:09.951Z,62.92
2022-09-01T08:47:12.985Z,62.61
2022-09-01T08:49:27.303Z,61.81
2022-09-01T08:50:10.881Z,60.98
2022-09-01T08:51:14.941Z,60.78
2022-09-01T08:52:10.825Z,60.58
2022-09-01T08:53:09.989Z,59.88
2022-09-01T08:54:09.816Z,59.88
2022-09-01T08:55:09.795Z,60.15
2022-09-01T08:56:09.809Z,59.85
2022-09-01T08:57:09.770Z,59.65
2022-09-01T08:58:09.807Z,59.95
2022-09-01T08:59:09.745Z,59.25
2022-09-01T09:00:09.767Z,58.85
2022-09-01T09:01:09.823Z,59.02
2022-09-01T09:02:09.730Z,59.12
2022-09-01T09:03:09.755Z,58.92
2022-09-01T09:04:09.700Z,59.72
2022-09-01T09:05:16.760Z,58.92
2022-09-01T09:06:10.701Z,58.12
2022-09-01T09:07:09.662Z,58.00
2022-09-01T09:08:09.650Z,58.29
2022-09-01T09:09:09.643Z,58.09
2022-09-01T09:10:09.660Z,57.89
2022-09-01T09:11:09.613Z,57.79
2022-09-01T09:12:09.620Z,57.97
2022-09-01T09:13:09.603Z,58.26
2022-09-01T09:14:09.601Z,57.87
2022-09-01T09:15:09.603Z,58.26
2022-09-01T09:16:09.612Z,56.84
2022-09-01T09:17:09.573Z,57.04
2022-09-01T09:18:38.311Z,56.34
2022-09-01T09:19:10.558Z,56.14
2022-09-01T09:20:09.567Z,55.54
2022-09-01T09:21:09.513Z,54.71
2022-09-01T09:22:09.775Z,54.41
2022-09-01T09:23:09.491Z,54.22
2022-09-01T09:24:09.475Z,53.89
2022-09-01T09:25:09.468Z,52.79
2022-09-01T09:26:09.455Z,53.79
2022-09-01T09:27:09.652Z,53.66
2022-09-01T09:28:09.456Z,53.17
2022-09-01T09:29:09.418Z,53.64
2022-09-01T09:30:11.652Z,53.54
2022-09-01T09:31:09.439Z,53.64
2022-09-01T09:32:39.552Z,53.84
2022-09-01T09:33:51.384Z,53.31
2022-09-01T09:34:10.366Z,52.51
2022-09-01T09:35:09.356Z,51.92
2022-09-01T09:36:09.349Z,51.00
2022-09-01T09:37:09.347Z,51.50
2022-09-01T09:38:09.360Z,52.19
2022-09-01T09:39:09.339Z,52.27
2022-09-01T09:40:10.229Z,51.87
2022-09-01T09:41:17.740Z,50.55
2022-09-01T09:42:10.285Z,50.63
2022-09-01T09:43:09.268Z,50.52
2022-09-01T09:44:11.488Z,50.10
2022-09-01T09:45:09.899Z,50.48
2022-09-01T09:46:23.317Z,49.74
2022-09-01T09:47:27.218Z,48.32
2022-09-01T09:48:10.843Z,48.74
2022-09-01T09:49:09.215Z,47.71
2022-09-01T09:50:09.212Z,46.49
2022-09-01T09:51:09.190Z,46.64
2022-09-01T09:52:09.170Z,47.67
2022-09-01T09:53:09.322Z,48.39
2022-09-01T09:54:09.142Z,49.01
2022-09-01T09:55:09.141Z,48.59
2022-09-01T09:56:09.143Z,48.14
2022-09-01T09:57:09.114Z,48.96
2022-09-01T09:58:09.111Z,48.69
2022-09-01T09:59:09.105Z,48.27
2022-09-01T10:00:09.082Z,46.81
2022-09-01T10:01:09.177Z,47.41
2022-09-01T10:02:09.055Z,47.92
2022-09-01T10:03:11.219Z,48.14
2022-09-01T10:04:09.097Z,47.50
2022-09-01T10:05:09.025Z,46.51
2022-09-01T10:06:09.036Z,46.64
2022-09-01T10:07:09.012Z,46.98
2022-09-01T10:08:08.985Z,48.19
2022-09-01T10:09:09.078Z,48.65
2022-09-01T10:10:08.990Z,48.57
2022-09-01T10:11:08.988Z,48.65
2022-09-01T10:12:08.954Z,46.62
2022-09-01T10:13:08.950Z,44.68
2022-09-01T10:14:08.926Z,43.52
2022-09-01T10:15:12.535Z,42.55
2022-09-01T10:16:11.303Z,42.16
2022-09-01T10:17:09.026Z,40.72
2022-09-01T10:19:12.688Z,38.98
2022-09-01T10:20:08.860Z,37.96
2022-09-01T10:21:08.913Z,38.44
2022-09-01T10:22:08.839Z,40.00
2022-09-01T10:23:15.469Z,41.43
2022-09-01T10:24:17.773Z,40.76
2022-09-01T10:25:10.242Z,38.72
2022-09-01T10:26:09.548Z,37.50
2022-09-01T10:27:14.245Z,37.15
2022-09-01T10:28:09.801Z,36.18
2022-09-01T10:29:12.008Z,34.57
2022-09-01T10:30:24.215Z,34.06
2022-09-01T10:31:09.832Z,34.93
2022-09-01T10:32:31.293Z,35.66
2022-09-01T10:33:19.309Z,36.72
2022-09-01T10:34:09.743Z,35.49
2022-09-01T10:35:08.715Z,35.06
2022-09-01T10:36:08.696Z,34.75
2022-09-01T10:37:11.243Z,35.21
2022-09-01T10:38:12.000Z,34.68
2022-09-01T10:39:09.143Z,34.18
2022-09-01T10:40:08.680Z,33.69
2022-09-01T10:41:09.096Z,33.18
2022-09-01T10:42:09.655Z,33.38
2022-09-01T10:43:12.415Z,33.87
2022-09-01T10:44:08.627Z,33.70
2022-09-01T10:45:08.598Z,34.52
2022-09-01T10:46:09.201Z,33.90
2022-09-01T10:47:13.607Z,35.24
2022-09-01T10:48:08.597Z,36.01
2022-09-01T10:49:08.911Z,36.69
2022-09-01T10:50:10.083Z,39.01
2022-09-01T10:51:08.552Z,40.96
2022-09-01T10:52:13.140Z,41.39
2022-09-01T10:53:09.511Z,42.01
2022-09-01T10:54:08.530Z,42.13
2022-09-01T10:55:08.499Z,42.76
2022-09-01T10:56:18.641Z,43.35
2022-09-01T10:57:12.176Z,41.73
2022-09-01T10:58:09.554Z,39.76
2022-09-01T11:00:34.924Z,37.68
2022-09-01T11:01:10.916Z,36.16
2022-09-01T11:02:26.425Z,36.60
2022-09-01T11:04:09.547Z,38.68
2022-09-01T11:05:08.514Z,39.64
2022-09-01T11:06:13.014Z,40.37
2022-09-01T11:07:12.739Z,40.69
2022-09-01T11:08:15.747Z,42.11
2022-09-01T11:09:09.390Z,42.62
2022-09-01T11:10:11.738Z,43.13
2022-09-01T11:11:08.327Z,43.65
2022-09-01T11:12:08.347Z,43.87
2022-09-01T11:13:08.328Z,43.67
2022-09-01T11:14:08.297Z,44.19
2022-09-01T11:15:08.287Z,45.20
2022-09-01T11:16:08.309Z,45.40
2022-09-01T11:17:08.345Z,45.30
2022-09-01T11:18:08.257Z,45.40
2022-09-01T11:19:11.342Z,45.30
2022-09-01T11:20:09.229Z,45.50
2022-09-01T11:21:08.226Z,45.48
2022-09-01T11:22:08.230Z,44.28
2022-09-01T11:23:08.201Z,42.34
2022-09-01T11:24:08.190Z,39.40
2022-09-01T11:25:11.117Z,39.40
2022-09-01T11:26:23.439Z,39.23
2022-09-01T11:27:09.188Z,37.63
2022-09-01T11:28:08.149Z,38.58
2022-09-01T11:29:08.144Z,39.40
2022-09-01T11:30:08.135Z,40.11
2022-09-01T11:31:08.126Z,37.95
2022-09-01T11:32:08.164Z,38.34
2022-09-01T11:33:08.127Z,38.20
2022-09-01T11:34:08.099Z,38.49
2022-09-01T11:35:08.084Z,39.12
2022-09-01T11:36:08.071Z,40.23
2022-09-01T11:37:08.067Z,40.17
2022-09-01T11:38:08.056Z,40.39
2022-09-01T11:39:08.069Z,41.59
2022-09-01T11:40:08.062Z,41.52
2022-09-01T11:41:08.024Z,41.53
2022-09-01T11:42:08.008Z,42.64
2022-09-01T11:43:08.077Z,42.54
2022-09-01T11:44:07.979Z,42.66
2022-09-01T11:45:07.998Z,43.06
2022-09-01T11:46:08.044Z,44.17
2022-09-01T11:47:12.168Z,42.98
2022-09-01T11:48:08.930Z,43.18
2022-09-01T11:49:07.931Z,41.25
2022-09-01T11:50:07.942Z,39.47
2022-09-01T11:51:07.909Z,38.58
2022-09-01T11:52:08.899Z,38.49
2022-09-01T11:53:07.910Z,38.93
2022-09-01T11:54:07.892Z,37.46
2022-09-01T11:55:07.880Z,36.49
2022-09-01T11:56:07.873Z,35.34
2022-09-01T11:57:07.860Z,34.44
2022-09-01T11:58:07.832Z,34.36
2022-09-01T11:59:07.824Z,35.00
2022-09-01T12:00:07.846Z,35.93
2022-09-01T12:01:07.813Z,35.50
2022-09-01T12:02:07.884Z,33.87
2022-09-01T12:03:07.921Z,34.69
2022-09-01T12:04:07.774Z,33.64
2022-09-01T12:05:07.765Z,32.13
2022-09-01T12:06:07.766Z,31.60
2022-09-01T12:07:10.750Z,31.48
2022-09-01T12:08:07.726Z,30.88
2022-09-01T12:09:07.718Z,30.57
2022-09-01T12:10:07.709Z,30.68
2022-09-01T12:11:07.697Z,30.08
2022-09-01T12:12:07.708Z,29.88
2022-09-01T12:13:07.679Z,30.14
2022-09-01T12:14:11.162Z,29.62
2022-09-01T12:15:07.666Z,29.02
2022-09-01T12:16:17.876Z,28.72
2022-09-01T12:17:08.726Z,27.83
2022-09-01T12:18:07.630Z,27.64
2022-09-01T12:19:07.620Z,28.20
2022-09-01T12:20:07.610Z,28.20
2022-09-01T12:21:07.601Z,28.00
2022-09-01T12:22:07.613Z,27.70
2022-09-01T12:23:07.602Z,27.79
2022-09-01T12:24:07.572Z,27.87
2022-09-01T12:25:07.563Z,27.39
2022-09-01T12:26:07.552Z,27.39
2022-09-01T12:27:07.544Z,27.28
2022-09-01T12:28:07.553Z,26.90
2022-09-01T12:29:07.527Z,26.81
2022-09-01T12:30:07.515Z,27.09
2022-09-01T12:31:07.624Z,26.61
2022-09-01T12:32:07.543Z,26.23
2022-09-01T12:33:23.964Z,26.72
2022-09-01T12:34:08.490Z,26.90
2022-09-01T12:35:11.491Z,26.90
2022-09-01T12:36:07.458Z,27.39
2022-09-01T12:37:07.449Z,26.72
2022-09-01T12:38:09.666Z,26.70
2022-09-01T12:39:07.425Z,26.61
2022-09-01T12:40:07.763Z,25.73
2022-09-01T12:41:07.576Z,26.72
2022-09-01T12:42:07.400Z,27.10
2022-09-01T12:43:07.883Z,26.42
2022-09-01T12:44:07.400Z,26.41
2022-09-01T12:45:08.853Z,26.30
2022-09-01T12:46:07.413Z,25.93
2022-09-01T12:47:07.341Z,25.93
2022-09-01T12:48:07.342Z,25.84
2022-09-01T12:49:07.400Z,25.74
2022-09-01T12:50:07.332Z,26.20
2022-09-01T12:51:09.363Z,25.35
2022-09-01T12:52:07.303Z,24.85
2022-09-01T12:53:08.446Z,25.02
2022-09-01T12:54:09.368Z,25.20
2022-09-01T12:55:07.284Z,25.32
2022-09-01T12:56:07.265Z,25.46
2022-09-01T12:57:07.263Z,25.94
2022-09-01T12:58:07.248Z,25.62
2022-09-01T12:59:10.747Z,25.71
2022-09-01T13:00:08.233Z,26.84
2022-09-01T13:01:07.280Z,26.73
2022-09-01T13:02:08.513Z,26.45
2022-09-01T13:03:08.256Z,27.18
2022-09-01T13:04:07.216Z,28.04
2022-09-01T13:05:07.217Z,29.13
2022-09-01T13:06:07.993Z,29.54
2022-09-01T13:07:07.696Z,29.96
2022-09-01T13:08:07.652Z,30.48
2022-09-01T13:09:07.160Z,30.98
2022-09-01T13:10:07.346Z,30.88
2022-09-01T13:11:07.140Z,30.80
2022-09-01T13:12:07.884Z,30.08
2022-09-01T13:13:07.121Z,29.33
2022-09-01T13:14:07.100Z,28.32
2022-09-01T13:15:07.154Z,27.59
2022-09-01T13:16:07.126Z,26.93
2022-09-01T13:17:13.903Z,27.58